Detall de PIREP

Printer-friendly versionPDF version

[2014/01/01 15:23:00]
Flight IATA:CT1004
Pilot Number:012
Company ICAO:CAT
Aircraft Type:B463/A
PAX:69
Aircraft Registration:PAX
Departing Airport: LWSK
Destination Airport: LIEA
Alternate Airport:LIEO
Online: VATSIM
Route:GOSTI UP92 BRD UM603 MOROB
Flight Level:F280
No Slew and time accel
No pause
Crash detect
Detect pilot in Cockpit between each 30 and 45 minutes
15:23 Zero fuel Weight: 68688 Lbs, Fuel Weight: 18344 Lbs
15:23 VATSIM:LWSK 011500Z 13003KT 9999 FEW015 SCT033 BKN080 07/04 Q1022 NOSIG
15:23 VATSIM:LIEA 011450Z 19010KT 9999 SCT020 BKN030 14/10 Q1019
15:23 VOICE CATALONIAN / XMAS CHARTER
15:24 Parking Brakes off
15:27 Take-off
15:27 Take off Weight: 86707 Lbs
15:27 Wind: 124º @ 003 Knots Heading: 343º
15:27 POS N41º 57´ 55´´ E021º 37´ 11´´
15:27 Flaps:1 at 148 Knots
15:27 Gear Up: 150 Knots
15:29 Flaps:0 at 163 Knots
15:39 TOC
15:39 Fuel Weight: 16082 Lb
15:40 TOD
15:40 Fuel Weight: 16080 Lb
15:40 TOC
15:40 Fuel Weight: 16065 Lb
15:42 Wind:176º@004 Knots Heading: 246º Ground Speed: 396 Knots Altitude 28185 ft
15:57 Wind:227º@010 Knots Heading: 255º Ground Speed: 409 Knots Altitude 28156 ft
16:12 Wind:298º@015 Knots Heading: 270º Ground Speed: 400 Knots Altitude 28129 ft
16:27 Wind:297º@029 Knots Heading: 290º Ground Speed: 387 Knots Altitude 28143 ft
16:42 Wind:293º@029 Knots Heading: 267º Ground Speed: 388 Knots Altitude 28149 ft
16:57 Wind:296º@024 Knots Heading: 266º Ground Speed: 391 Knots Altitude 28192 ft
16:57 TOD
16:57 Fuel Weight: 8730 Lb
17:11 Flaps:1 at 183 Knots
17:11 Gear Down: 169 Knots
17:11 Flaps:2 at 153 Knots
17:11 Flaps:3 at 131 Knots
17:12 Wind:189º@007 Knots Heading: 214º Ground Speed: 129 Knots Altitude 3011 ft
17:12 Flaps:4 at 125 Knots
17:16 TouchDown:Rate -184 ft/min Speed: 109 Knots
17:17 Flaps:3 at 69 Knots
17:17 Flaps:0 at 68 Knots
17:17 VATSIM:LIEA 011650Z 19007KT 9999 BKN025 14/10 Q1019
17:17 Land
17:17 Wind:188º@007 Knots
17:17 Heading: 203º
17:17 Flight Duration: 01:50
17:17 Landing Weight: 76664 Lbs
17:17 POS N40º 38´ 01´´ E008º 17´ 30´´
17:19 Parking brakes on
17:19 Block to Block Duration: 01:55
17:19 Final Fuel: 7888 Lbls
17:19 Spent Fuel: 10456 Lbls
17:19 Flight Length: 655 NM
17:19 TOD Land Length: 80 NM

Exportar CSV

Powered by Drupal - Modified by Danger4k